sensor_id;sensor_type;location;lat;lon;timestamp;pressure;altitude;pressure_sealevel;temperature;humidity
7918;BME280;4004;42.624;23.386;2023-05-17T00:01:17;93574.28;;;14.65;100.00
7918;BME280;4004;42.624;23.386;2023-05-17T00:03:44;93587.84;;;14.58;100.00
7918;BME280;4004;42.624;23.386;2023-05-17T00:06:11;93586.00;;;14.33;100.00
7918;BME280;4004;42.624;23.386;2023-05-17T00:08:37;93579.09;;;14.18;100.00
7918;BME280;4004;42.624;23.386;2023-05-17T00:11:04;93570.66;;;14.01;100.00
7918;BME280;4004;42.624;23.386;2023-05-17T00:13:31;93566.38;;;14.00;100.00
7918;BME280;4004;42.624;23.386;2023-05-17T00:15:57;93564.09;;;13.99;100.00
7918;BME280;4004;42.624;23.386;2023-05-17T00:18:25;93565.22;;;14.08;100.00
7918;BME280;4004;42.624;23.386;2023-05-17T00:20:52;93550.56;;;14.06;100.00
7918;BME280;4004;42.624;23.386;2023-05-17T00:23:19;93549.00;;;14.08;100.00
7918;BME280;4004;42.624;23.386;2023-05-17T00:25:46;93556.31;;;14.12;100.00
7918;BME280;4004;42.624;23.386;2023-05-17T00:28:12;93569.09;;;14.07;100.00
7918;BME280;4004;42.624;23.386;2023-05-17T00:30:39;93575.25;;;14.04;100.00
7918;BME280;4004;42.624;23.386;2023-05-17T00:33:06;93568.34;;;14.03;100.00
7918;BME280;4004;42.624;23.386;2023-05-17T00:35:34;93567.56;;;13.99;100.00
7918;BME280;4004;42.624;23.386;2023-05-17T00:38:00;93571.78;;;14.04;100.00
7918;BME280;4004;42.624;23.386;2023-05-17T00:40:27;93576.44;;;14.03;100.00
7918;BME280;4004;42.624;23.386;2023-05-17T00:42:54;93571.84;;;13.79;100.00
7918;BME280;4004;42.624;23.386;2023-05-17T00:45:21;93573.75;;;13.78;100.00
7918;BME280;4004;42.624;23.386;2023-05-17T00:47:47;93570.72;;;13.76;100.00
7918;BME280;4004;42.624;23.386;2023-05-17T00:50:14;93568.41;;;13.64;100.00
7918;BME280;4004;42.624;23.386;2023-05-17T00:52:42;93583.44;;;13.61;100.00
7918;BME280;4004;42.624;23.386;2023-05-17T00:55:09;93580.75;;;13.72;100.00
7918;BME280;4004;42.624;23.386;2023-05-17T00:57:36;93583.81;;;13.67;100.00
7918;BME280;4004;42.624;23.386;2023-05-17T01:00:04;93583.84;;;13.56;100.00
7918;BME280;4004;42.624;23.386;2023-05-17T01:02:31;93580.34;;;13.45;100.00
7918;BME280;4004;42.624;23.386;2023-05-17T01:04:57;93585.75;;;13.48;100.00
7918;BME280;4004;42.624;23.386;2023-05-17T01:07:24;93580.75;;;13.54;100.00
7918;BME280;4004;42.624;23.386;2023-05-17T01:09:52;93578.81;;;13.55;100.00
7918;BME280;4004;42.624;23.386;2023-05-17T01:12:26;93574.56;;;13.54;100.00
7918;BME280;4004;42.624;23.386;2023-05-17T01:15:09;93574.59;;;13.43;100.00
7918;BME280;4004;42.624;23.386;2023-05-17T01:17:41;93581.16;;;13.35;100.00
7918;BME280;4004;42.624;23.386;2023-05-17T01:20:15;93581.91;;;13.28;100.00
7918;BME280;4004;42.624;23.386;2023-05-17T01:22:52;93579.56;;;13.23;100.00
7918;BME280;4004;42.624;23.386;2023-05-17T01:25:30;93577.63;;;13.23;100.00
7918;BME280;4004;42.624;23.386;2023-05-17T01:28:02;93576.13;;;13.37;100.00
7918;BME280;4004;42.624;23.386;2023-05-17T01:30:31;93578.03;;;13.40;100.00
7918;BME280;4004;42.624;23.386;2023-05-17T01:32:59;93580.75;;;13.33;100.00
7918;BME280;4004;42.624;23.386;2023-05-17T01:35:26;93583.81;;;13.27;100.00
7918;BME280;4004;42.624;23.386;2023-05-17T01:37:53;93577.28;;;13.32;100.00
7918;BME280;4004;42.624;23.386;2023-05-17T01:40:20;93573.81;;;13.39;100.00
7918;BME280;4004;42.624;23.386;2023-05-17T01:42:49;93578.44;;;13.38;100.00
7918;BME280;4004;42.624;23.386;2023-05-17T01:45:23;93583.44;;;13.33;100.00
7918;BME280;4004;42.624;23.386;2023-05-17T01:48:11;93584.97;;;13.26;100.00
7918;BME280;4004;42.624;23.386;2023-05-17T01:50:40;93578.00;;;13.18;100.00
7918;BME280;4004;42.624;23.386;2023-05-17T01:53:10;93571.47;;;13.12;100.00
7918;BME280;4004;42.624;23.386;2023-05-17T01:55:43;93563.75;;;13.14;100.00
7918;BME280;4004;42.624;23.386;2023-05-17T01:58:11;93564.50;;;13.04;100.00
7918;BME280;4004;42.624;23.386;2023-05-17T02:00:42;93562.94;;;12.89;100.00
7918;BME280;4004;42.624;23.386;2023-05-17T02:03:12;93568.34;;;12.96;100.00
7918;BME280;4004;42.624;23.386;2023-05-17T02:05:42;93566.41;;;12.82;100.00
7918;BME280;4004;42.624;23.386;2023-05-17T02:08:09;93562.91;;;12.78;100.00
7918;BME280;4004;42.624;23.386;2023-05-17T02:10:35;93566.41;;;12.82;100.00
7918;BME280;4004;42.624;23.386;2023-05-17T02:13:02;93573.34;;;12.83;100.00
7918;BME280;4004;42.624;23.386;2023-05-17T02:15:29;93564.09;;;12.84;100.00
7918;BME280;4004;42.624;23.386;2023-05-17T02:17:58;93553.28;;;12.77;100.00
7918;BME280;4004;42.624;23.386;2023-05-17T02:20:25;93552.16;;;12.81;100.00
7918;BME280;4004;42.624;23.386;2023-05-17T02:22:52;93553.69;;;12.82;100.00
7918;BME280;4004;42.624;23.386;2023-05-17T02:25:19;93560.59;;;12.80;100.00
7918;BME280;4004;42.624;23.386;2023-05-17T02:27:46;93555.97;;;12.80;100.00
7918;BME280;4004;42.624;23.386;2023-05-17T02:30:13;93552.91;;;12.78;100.00
7918;BME280;4004;42.624;23.386;2023-05-17T02:32:41;93548.28;;;12.82;100.00
7918;BME280;4004;42.624;23.386;2023-05-17T02:35:09;93554.03;;;12.74;100.00
7918;BME280;4004;42.624;23.386;2023-05-17T02:37:36;93560.59;;;12.73;100.00
7918;BME280;4004;42.624;23.386;2023-05-17T02:40:04;93556.38;;;12.79;100.00
7918;BME280;4004;42.624;23.386;2023-05-17T02:42:33;93558.69;;;12.77;100.00
7918;BME280;4004;42.624;23.386;2023-05-17T02:45:00;93565.25;;;12.79;100.00
7918;BME280;4004;42.624;23.386;2023-05-17T02:47:27;93573.72;;;12.81;100.00
7918;BME280;4004;42.624;23.386;2023-05-17T02:49:54;93571.78;;;12.75;100.00
7918;BME280;4004;42.624;23.386;2023-05-17T02:52:22;93590.69;;;12.85;100.00
7918;BME280;4004;42.624;23.386;2023-05-17T02:54:49;93590.69;;;12.78;100.00
7918;BME280;4004;42.624;23.386;2023-05-17T02:57:16;93601.81;;;12.66;100.00
7918;BME280;4004;42.624;23.386;2023-05-17T02:59:43;93601.78;;;12.52;100.00
7918;BME280;4004;42.624;23.386;2023-05-17T03:02:10;93604.31;;;12.19;100.00
7918;BME280;4004;42.624;23.386;2023-05-17T03:04:37;93617.34;;;12.14;100.00
7918;BME280;4004;42.624;23.386;2023-05-17T03:07:04;93617.03;;;12.22;100.00
7918;BME280;4004;42.624;23.386;2023-05-17T03:09:32;93616.69;;;12.28;100.00
7918;BME280;4004;42.624;23.386;2023-05-17T03:11:59;93617.09;;;12.40;100.00
7918;BME280;4004;42.624;23.386;2023-05-17T03:14:26;93616.38;;;12.51;100.00
7918;BME280;4004;42.624;23.386;2023-05-17T03:16:52;93617.63;;;12.68;100.00
7918;BME280;4004;42.624;23.386;2023-05-17T03:19:19;93617.97;;;12.62;100.00
7918;BME280;4004;42.624;23.386;2023-05-17T03:21:46;93618.72;;;12.59;100.00
7918;BME280;4004;42.624;23.386;2023-05-17T03:24:12;93624.50;;;12.58;100.00
7918;BME280;4004;42.624;23.386;2023-05-17T03:26:41;93612.19;;;12.64;100.00
7918;BME280;4004;42.624;23.386;2023-05-17T03:29:08;93613.38;;;12.63;100.00
7918;BME280;4004;42.624;23.386;2023-05-17T03:31:35;93612.97;;;12.64;100.00
7918;BME280;4004;42.624;23.386;2023-05-17T03:34:01;93618.00;;;12.66;100.00
7918;BME280;4004;42.624;23.386;2023-05-17T03:36:28;93612.22;;;12.71;100.00
7918;BME280;4004;42.624;23.386;2023-05-17T03:38:55;93610.69;;;12.74;100.00
7918;BME280;4004;42.624;23.386;2023-05-17T03:41:22;93612.63;;;12.80;100.00
7918;BME280;4004;42.624;23.386;2023-05-17T03:43:50;93619.59;;;12.89;100.00
7918;BME280;4004;42.624;23.386;2023-05-17T03:46:17;93614.97;;;12.85;100.00
7918;BME280;4004;42.624;23.386;2023-05-17T03:48:44;93615.75;;;12.93;100.00
7918;BME280;4004;42.624;23.386;2023-05-17T03:51:11;93620.78;;;12.98;100.00
7918;BME280;4004;42.624;23.386;2023-05-17T03:53:37;93628.50;;;12.96;100.00
7918;BME280;4004;42.624;23.386;2023-05-17T03:56:07;93614.97;;;12.78;100.00
7918;BME280;4004;42.624;23.386;2023-05-17T03:58:34;93623.78;;;12.75;100.00
7918;BME280;4004;42.624;23.386;2023-05-17T04:01:03;93626.94;;;12.95;100.00
7918;BME280;4004;42.624;23.386;2023-05-17T04:03:29;93618.88;;;13.20;100.00
7918;BME280;4004;42.624;23.386;2023-05-17T04:06:01;93618.56;;;13.51;100.00
7918;BME280;4004;42.624;23.386;2023-05-17T04:08:30;93623.19;;;13.79;100.00
7918;BME280;4004;42.624;23.386;2023-05-17T04:10:57;93616.97;;;14.14;100.00
7918;BME280;4004;42.624;23.386;2023-05-17T04:13:24;93621.84;;;14.66;100.00
7918;BME280;4004;42.624;23.386;2023-05-17T04:15:50;93627.47;;;15.63;100.00
7918;BME280;4004;42.624;23.386;2023-05-17T04:18:19;93632.16;;;16.46;100.00
7918;BME280;4004;42.624;23.386;2023-05-17T04:20:45;93637.44;;;16.94;100.00
7918;BME280;4004;42.624;23.386;2023-05-17T04:23:12;93632.13;;;17.14;99.17
7918;BME280;4004;42.624;23.386;2023-05-17T04:25:39;93638.22;;;17.22;98.38
7918;BME280;4004;42.624;23.386;2023-05-17T04:28:06;93645.56;;;16.94;99.15
7918;BME280;4004;42.624;23.386;2023-05-17T04:30:33;93631.66;;;16.54;100.00
7918;BME280;4004;42.624;23.386;2023-05-17T04:33:01;93633.41;;;16.34;100.00
7918;BME280;4004;42.624;23.386;2023-05-17T04:35:29;93633.06;;;16.66;100.00
7918;BME280;4004;42.624;23.386;2023-05-17T04:37:55;93625.47;;;16.88;100.00
7918;BME280;4004;42.624;23.386;2023-05-17T04:40:22;93629.44;;;16.80;100.00
7918;BME280;4004;42.624;23.386;2023-05-17T04:42:49;93634.13;;;16.80;100.00
7918;BME280;4004;42.624;23.386;2023-05-17T04:45:16;93632.44;;;16.89;99.82
7918;BME280;4004;42.624;23.386;2023-05-17T04:47:43;93632.44;;;17.20;96.14
7918;BME280;4004;42.624;23.386;2023-05-17T04:50:10;93631.56;;;17.27;94.46
7918;BME280;4004;42.624;23.386;2023-05-17T04:52:38;93619.78;;;17.37;94.10
7918;BME280;4004;42.624;23.386;2023-05-17T04:55:05;93641.38;;;17.48;93.20
7918;BME280;4004;42.624;23.386;2023-05-17T04:57:32;93630.06;;;17.49;93.77
7918;BME280;4004;42.624;23.386;2023-05-17T05:00:00;93631.97;;;17.52;91.69
7918;BME280;4004;42.624;23.386;2023-05-17T05:02:28;93624.13;;;17.31;91.76
7918;BME280;4004;42.624;23.386;2023-05-17T05:04:55;93631.41;;;17.37;91.71
7918;BME280;4004;42.624;23.386;2023-05-17T05:07:21;93646.63;;;17.01;92.04
7918;BME280;4004;42.624;23.386;2023-05-17T05:09:49;93643.22;;;16.96;93.53
7918;BME280;4004;42.624;23.386;2023-05-17T05:12:16;93639.84;;;17.16;92.70
7918;BME280;4004;42.624;23.386;2023-05-17T05:14:43;93648.28;;;17.52;90.31
7918;BME280;4004;42.624;23.386;2023-05-17T05:17:10;93651.41;;;17.51;89.44
7918;BME280;4004;42.624;23.386;2023-05-17T05:19:37;93651.91;;;17.69;89.25
7918;BME280;4004;42.624;23.386;2023-05-17T05:22:04;93653.38;;;17.74;86.13
7918;BME280;4004;42.624;23.386;2023-05-17T05:24:30;93643.03;;;17.92;85.71
7918;BME280;4004;42.624;23.386;2023-05-17T05:26:59;93651.44;;;18.45;83.04
7918;BME280;4004;42.624;23.386;2023-05-17T05:29:25;93647.94;;;18.88;79.90
7918;BME280;4004;42.624;23.386;2023-05-17T05:31:52;93649.56;;;19.05;75.82
7918;BME280;4004;42.624;23.386;2023-05-17T05:34:19;93641.19;;;19.33;75.69
7918;BME280;4004;42.624;23.386;2023-05-17T05:36:45;93645.88;;;20.01;71.24
7918;BME280;4004;42.624;23.386;2023-05-17T05:39:12;93654.31;;;20.69;64.94
7918;BME280;4004;42.624;23.386;2023-05-17T05:41:40;93654.75;;;20.97;62.34
7918;BME280;4004;42.624;23.386;2023-05-17T05:44:08;93661.09;;;21.06;58.87
7918;BME280;4004;42.624;23.386;2023-05-17T05:46:35;93663.19;;;20.73;61.57
7918;BME280;4004;42.624;23.386;2023-05-17T05:49:02;93668.38;;;20.84;60.17
7918;BME280;4004;42.624;23.386;2023-05-17T05:51:28;93673.88;;;20.51;61.68
7918;BME280;4004;42.624;23.386;2023-05-17T05:53:55;93660.75;;;20.46;61.56
7918;BME280;4004;42.624;23.386;2023-05-17T05:56:22;93661.38;;;20.21;62.40
7918;BME280;4004;42.624;23.386;2023-05-17T05:58:51;93668.59;;;20.27;63.00
7918;BME280;4004;42.624;23.386;2023-05-17T06:01:19;93672.03;;;20.32;62.00
7918;BME280;4004;42.624;23.386;2023-05-17T06:03:46;93681.75;;;20.33;63.41
7918;BME280;4004;42.624;23.386;2023-05-17T06:06:13;93674.78;;;20.15;63.84
7918;BME280;4004;42.624;23.386;2023-05-17T06:08:41;93674.00;;;19.82;66.00
7918;BME280;4004;42.624;23.386;2023-05-17T06:11:10;93680.34;;;19.59;66.91
7918;BME280;4004;42.624;23.386;2023-05-17T06:13:36;93672.75;;;19.50;69.10
7918;BME280;4004;42.624;23.386;2023-05-17T06:16:03;93674.59;;;19.37;69.98
7918;BME280;4004;42.624;23.386;2023-05-17T06:18:32;93672.94;;;19.03;72.40
7918;BME280;4004;42.624;23.386;2023-05-17T06:20:59;93667.94;;;18.81;73.15
7918;BME280;4004;42.624;23.386;2023-05-17T06:23:26;93668.59;;;18.66;74.94
7918;BME280;4004;42.624;23.386;2023-05-17T06:25:52;93675.00;;;18.32;76.75
7918;BME280;4004;42.624;23.386;2023-05-17T06:28:19;93681.75;;;18.00;80.40
7918;BME280;4004;42.624;23.386;2023-05-17T06:30:46;93689.91;;;17.73;83.41
7918;BME280;4004;42.624;23.386;2023-05-17T06:33:13;93693.00;;;17.48;86.33
7918;BME280;4004;42.624;23.386;2023-05-17T06:35:41;93675.97;;;17.44;88.89
7918;BME280;4004;42.624;23.386;2023-05-17T06:38:08;93683.00;;;17.10;89.67
7918;BME280;4004;42.624;23.386;2023-05-17T06:40:34;93672.00;;;16.90;92.76
7918;BME280;4004;42.624;23.386;2023-05-17T06:43:01;93676.53;;;16.63;95.45
7918;BME280;4004;42.624;23.386;2023-05-17T06:45:28;93670.03;;;16.56;100.00
7918;BME280;4004;42.624;23.386;2023-05-17T06:47:54;93673.53;;;16.53;100.00
7918;BME280;4004;42.624;23.386;2023-05-17T06:50:21;93672.09;;;16.42;100.00
7918;BME280;4004;42.624;23.386;2023-05-17T06:52:49;93678.66;;;16.44;100.00
7918;BME280;4004;42.624;23.386;2023-05-17T06:55:16;93669.78;;;16.40;100.00
7918;BME280;4004;42.624;23.386;2023-05-17T06:57:42;93677.19;;;16.36;100.00
7918;BME280;4004;42.624;23.386;2023-05-17T07:00:10;93674.81;;;16.42;100.00
7918;BME280;4004;42.624;23.386;2023-05-17T07:02:37;93676.31;;;16.46;100.00
7918;BME280;4004;42.624;23.386;2023-05-17T07:05:05;93691.75;;;16.53;100.00
7918;BME280;4004;42.624;23.386;2023-05-17T07:07:32;93687.53;;;16.48;100.00
7918;BME280;4004;42.624;23.386;2023-05-17T07:10:00;93695.34;;;16.43;100.00
7918;BME280;4004;42.624;23.386;2023-05-17T07:12:27;93689.50;;;16.48;100.00
7918;BME280;4004;42.624;23.386;2023-05-17T07:14:53;93689.81;;;16.53;100.00
7918;BME280;4004;42.624;23.386;2023-05-17T07:17:20;93687.56;;;16.45;100.00
7918;BME280;4004;42.624;23.386;2023-05-17T07:19:47;93690.56;;;16.54;100.00
7918;BME280;4004;42.624;23.386;2023-05-17T07:22:15;93691.03;;;16.49;100.00
7918;BME280;4004;42.624;23.386;2023-05-17T07:24:42;93701.41;;;16.57;100.00
7918;BME280;4004;42.624;23.386;2023-05-17T07:27:10;93700.25;;;16.58;100.00
7918;BME280;4004;42.624;23.386;2023-05-17T07:29:37;93699.09;;;16.56;100.00
7918;BME280;4004;42.624;23.386;2023-05-17T07:32:04;93685.50;;;16.56;100.00
7918;BME280;4004;42.624;23.386;2023-05-17T07:34:31;93698.69;;;16.57;100.00
7918;BME280;4004;42.624;23.386;2023-05-17T07:36:58;93693.88;;;16.34;100.00
7918;BME280;4004;42.624;23.386;2023-05-17T07:39:24;93711.75;;;16.32;100.00
7918;BME280;4004;42.624;23.386;2023-05-17T07:41:51;93702.50;;;16.26;100.00
7918;BME280;4004;42.624;23.386;2023-05-17T07:44:19;93713.34;;;16.22;100.00
7918;BME280;4004;42.624;23.386;2023-05-17T07:46:47;93715.31;;;16.18;100.00
7918;BME280;4004;42.624;23.386;2023-05-17T07:49:13;93708.09;;;16.04;100.00
7918;BME280;4004;42.624;23.386;2023-05-17T07:51:40;93703.50;;;15.98;100.00
7918;BME280;4004;42.624;23.386;2023-05-17T07:54:07;93710.81;;;16.01;100.00
7918;BME280;4004;42.624;23.386;2023-05-17T07:56:33;93708.09;;;16.01;100.00
7918;BME280;4004;42.624;23.386;2023-05-17T07:59:00;93706.94;;;16.05;100.00
7918;BME280;4004;42.624;23.386;2023-05-17T08:01:28;93701.50;;;16.05;100.00
7918;BME280;4004;42.624;23.386;2023-05-17T08:03:55;93709.94;;;16.14;100.00
7918;BME280;4004;42.624;23.386;2023-05-17T08:06:22;93699.44;;;16.20;100.00
7918;BME280;4004;42.624;23.386;2023-05-17T08:08:49;93703.22;;;16.30;100.00
7918;BME280;4004;42.624;23.386;2023-05-17T08:11:15;93705.44;;;16.42;100.00
7918;BME280;4004;42.624;23.386;2023-05-17T08:13:42;93707.69;;;16.47;100.00
7918;BME280;4004;42.624;23.386;2023-05-17T08:16:09;93702.59;;;16.56;100.00
7918;BME280;4004;42.624;23.386;2023-05-17T08:18:38;93699.75;;;16.67;100.00
7918;BME280;4004;42.624;23.386;2023-05-17T08:21:05;93700.06;;;16.76;100.00
7918;BME280;4004;42.624;23.386;2023-05-17T08:23:31;93703.47;;;16.84;100.00
7918;BME280;4004;42.624;23.386;2023-05-17T08:25:58;93689.44;;;16.89;100.00
7918;BME280;4004;42.624;23.386;2023-05-17T08:28:25;93690.16;;;17.28;100.00
7918;BME280;4004;42.624;23.386;2023-05-17T08:30:52;93694.41;;;17.29;100.00
7918;BME280;4004;42.624;23.386;2023-05-17T08:33:19;93685.84;;;17.30;98.12
7918;BME280;4004;42.624;23.386;2023-05-17T08:35:48;93688.59;;;17.57;100.00
7918;BME280;4004;42.624;23.386;2023-05-17T08:38:14;93689.56;;;17.71;99.41
7918;BME280;4004;42.624;23.386;2023-05-17T08:40:41;93688.78;;;17.70;95.95
7918;BME280;4004;42.624;23.386;2023-05-17T08:43:10;93707.09;;;17.66;93.02
7918;BME280;4004;42.624;23.386;2023-05-17T08:45:38;93687.94;;;17.50;97.45
7918;BME280;4004;42.624;23.386;2023-05-17T08:48:05;93687.34;;;17.62;97.63
7918;BME280;4004;42.624;23.386;2023-05-17T08:50:32;93676.25;;;17.49;98.74
7918;BME280;4004;42.624;23.386;2023-05-17T08:53:01;93685.16;;;17.53;95.05
7918;BME280;4004;42.624;23.386;2023-05-17T08:55:30;93685.16;;;17.53;93.16
7918;BME280;4004;42.624;23.386;2023-05-17T08:57:59;93687.56;;;17.48;95.58
7918;BME280;4004;42.624;23.386;2023-05-17T09:00:27;93682.94;;;17.45;95.79
7918;BME280;4004;42.624;23.386;2023-05-17T09:02:53;93690.69;;;17.46;94.32
7918;BME280;4004;42.624;23.386;2023-05-17T09:05:20;93687.50;;;17.51;95.34
7918;BME280;4004;42.624;23.386;2023-05-17T09:07:48;93673.88;;;17.55;97.28
7918;BME280;4004;42.624;23.386;2023-05-17T09:10:16;93686.25;;;17.56;95.27
7918;BME280;4004;42.624;23.386;2023-05-17T09:12:43;93677.25;;;17.35;92.83
7918;BME280;4004;42.624;23.386;2023-05-17T09:15:15;93667.06;;;17.43;95.73
7918;BME280;4004;42.624;23.386;2023-05-17T09:17:49;93667.13;;;17.36;94.99
7918;BME280;4004;42.624;23.386;2023-05-17T09:20:21;93677.13;;;17.43;99.57
7918;BME280;4004;42.624;23.386;2023-05-17T09:22:49;93682.06;;;17.51;100.00
7918;BME280;4004;42.624;23.386;2023-05-17T09:25:19;93685.88;;;17.57;100.00
7918;BME280;4004;42.624;23.386;2023-05-17T09:27:46;93680.84;;;17.56;98.83
7918;BME280;4004;42.624;23.386;2023-05-17T09:30:13;93677.50;;;17.72;100.00
7918;BME280;4004;42.624;23.386;2023-05-17T09:32:44;93674.69;;;17.79;97.96
7918;BME280;4004;42.624;23.386;2023-05-17T09:35:11;93674.25;;;17.80;100.00
7918;BME280;4004;42.624;23.386;2023-05-17T09:37:38;93676.97;;;17.80;98.59
7918;BME280;4004;42.624;23.386;2023-05-17T09:40:06;93689.03;;;17.79;97.77
7918;BME280;4004;42.624;23.386;2023-05-17T09:42:34;93689.03;;;17.83;97.02
7918;BME280;4004;42.624;23.386;2023-05-17T09:45:04;93697.50;;;17.85;96.43
7918;BME280;4004;42.624;23.386;2023-05-17T09:47:31;93696.63;;;17.92;95.36
7918;BME280;4004;42.624;23.386;2023-05-17T09:49:59;93693.28;;;17.84;94.01
7918;BME280;4004;42.624;23.386;2023-05-17T09:52:28;93705.03;;;17.74;94.46
7918;BME280;4004;42.624;23.386;2023-05-17T09:54:57;93701.84;;;17.52;92.99
7918;BME280;4004;42.624;23.386;2023-05-17T09:57:26;93703.75;;;17.55;95.63
7918;BME280;4004;42.624;23.386;2023-05-17T09:59:56;93698.63;;;17.60;95.20
7918;BME280;4004;42.624;23.386;2023-05-17T10:02:26;93692.94;;;17.51;96.29
7918;BME280;4004;42.624;23.386;2023-05-17T10:04:56;93683.28;;;17.47;95.66
7918;BME280;4004;42.624;23.386;2023-05-17T10:07:24;93682.06;;;17.51;99.31
7918;BME280;4004;42.624;23.386;2023-05-17T10:09:53;93687.72;;;17.37;97.91
7918;BME280;4004;42.624;23.386;2023-05-17T10:12:21;93687.16;;;17.18;98.54
7918;BME280;4004;42.624;23.386;2023-05-17T10:14:50;93687.75;;;17.03;97.52
7918;BME280;4004;42.624;23.386;2023-05-17T10:17:21;93663.03;;;16.93;100.00
7918;BME280;4004;42.624;23.386;2023-05-17T10:19:49;93663.88;;;16.87;100.00
7918;BME280;4004;42.624;23.386;2023-05-17T10:22:16;93653.03;;;16.87;100.00
7918;BME280;4004;42.624;23.386;2023-05-17T10:24:44;93646.88;;;16.83;99.93
7918;BME280;4004;42.624;23.386;2023-05-17T10:27:11;93642.94;;;16.87;98.78
7918;BME280;4004;42.624;23.386;2023-05-17T10:29:39;93623.44;;;16.96;97.41
7918;BME280;4004;42.624;23.386;2023-05-17T10:32:07;93622.44;;;17.13;97.88
7918;BME280;4004;42.624;23.386;2023-05-17T10:34:37;93610.19;;;17.29;97.81
7918;BME280;4004;42.624;23.386;2023-05-17T10:37:04;93606.59;;;17.35;97.92
7918;BME280;4004;42.624;23.386;2023-05-17T10:39:32;93593.84;;;17.32;98.44
7918;BME280;4004;42.624;23.386;2023-05-17T10:42:05;93585.41;;;17.50;98.84
7918;BME280;4004;42.624;23.386;2023-05-17T10:44:33;93576.50;;;17.50;95.29
7918;BME280;4004;42.624;23.386;2023-05-17T10:47:01;93560.13;;;17.53;94.22
7918;BME280;4004;42.624;23.386;2023-05-17T10:49:29;93562.47;;;17.51;91.70
7918;BME280;4004;42.624;23.386;2023-05-17T10:51:58;93552.22;;;17.39;91.57
7918;BME280;4004;42.624;23.386;2023-05-17T10:54:35;93544.47;;;17.37;90.67
7918;BME280;4004;42.624;23.386;2023-05-17T10:57:04;93547.41;;;17.47;91.50
7918;BME280;4004;42.624;23.386;2023-05-17T10:59:32;93537.38;;;17.44;89.69
7918;BME280;4004;42.624;23.386;2023-05-17T11:02:02;93542.22;;;17.32;90.44
7918;BME280;4004;42.624;23.386;2023-05-17T11:04:33;93528.03;;;17.45;92.31
7918;BME280;4004;42.624;23.386;2023-05-17T11:07:22;93536.22;;;17.68;93.88
7918;BME280;4004;42.624;23.386;2023-05-17T11:09:51;93537.00;;;17.65;94.32
7918;BME280;4004;42.624;23.386;2023-05-17T11:12:31;93560.00;;;17.60;93.82
7918;BME280;4004;42.624;23.386;2023-05-17T11:14:59;93544.69;;;17.47;96.61
7918;BME280;4004;42.624;23.386;2023-05-17T11:17:33;93553.56;;;17.51;100.00
7918;BME280;4004;42.624;23.386;2023-05-17T11:20:03;93572.28;;;17.45;100.00
7918;BME280;4004;42.624;23.386;2023-05-17T11:22:37;93570.81;;;17.40;100.00
7918;BME280;4004;42.624;23.386;2023-05-17T11:25:07;93579.66;;;17.45;100.00
7918;BME280;4004;42.624;23.386;2023-05-17T11:27:40;93584.22;;;17.28;100.00
7918;BME280;4004;42.624;23.386;2023-05-17T11:30:15;93596.56;;;17.32;100.00
7918;BME280;4004;42.624;23.386;2023-05-17T11:32:46;93591.22;;;17.25;100.00
7918;BME280;4004;42.624;23.386;2023-05-17T11:35:13;93600.31;;;17.38;100.00
7918;BME280;4004;42.624;23.386;2023-05-17T11:37:42;93617.47;;;17.35;97.57
7918;BME280;4004;42.624;23.386;2023-05-17T11:40:10;93597.00;;;17.27;100.00
7918;BME280;4004;42.624;23.386;2023-05-17T11:42:39;93612.06;;;17.32;100.00
7918;BME280;4004;42.624;23.386;2023-05-17T11:45:07;93619.34;;;17.38;100.00
7918;BME280;4004;42.624;23.386;2023-05-17T11:47:37;93619.34;;;17.38;96.81
7918;BME280;4004;42.624;23.386;2023-05-17T11:50:07;93624.13;;;17.31;93.62
7918;BME280;4004;42.624;23.386;2023-05-17T11:52:33;93631.16;;;17.28;94.65
7918;BME280;4004;42.624;23.386;2023-05-17T11:55:02;93631.66;;;17.19;93.58
7918;BME280;4004;42.624;23.386;2023-05-17T11:57:31;93639.44;;;17.17;94.02
7918;BME280;4004;42.624;23.386;2023-05-17T11:59:58;93648.19;;;17.02;92.84
7918;BME280;4004;42.624;23.386;2023-05-17T12:02:26;93626.16;;;16.96;94.05
7918;BME280;4004;42.624;23.386;2023-05-17T12:04:53;93620.94;;;17.09;95.92
7918;BME280;4004;42.624;23.386;2023-05-17T12:07:20;93627.47;;;17.15;95.21
7918;BME280;4004;42.624;23.386;2023-05-17T12:09:47;93625.50;;;17.15;94.06
7918;BME280;4004;42.624;23.386;2023-05-17T12:12:15;93639.19;;;17.08;94.26
7918;BME280;4004;42.624;23.386;2023-05-17T12:14:43;93634.59;;;17.05;95.43
7918;BME280;4004;42.624;23.386;2023-05-17T12:17:18;93614.75;;;17.08;96.44
7918;BME280;4004;42.624;23.386;2023-05-17T12:19:51;93630.09;;;17.18;97.17
7918;BME280;4004;42.624;23.386;2023-05-17T12:22:17;93617.56;;;17.28;94.81
7918;BME280;4004;42.624;23.386;2023-05-17T12:24:44;93621.44;;;17.27;94.71
7918;BME280;4004;42.624;23.386;2023-05-17T12:27:11;93620.69;;;17.27;92.81
7918;BME280;4004;42.624;23.386;2023-05-17T12:29:39;93600.16;;;17.26;93.49
7918;BME280;4004;42.624;23.386;2023-05-17T12:32:07;93605.25;;;17.20;91.12
7918;BME280;4004;42.624;23.386;2023-05-17T12:34:34;93606.75;;;17.25;94.18
7918;BME280;4004;42.624;23.386;2023-05-17T12:37:01;93606.75;;;17.25;91.87
7918;BME280;4004;42.624;23.386;2023-05-17T12:39:29;93592.50;;;17.17;92.08
7918;BME280;4004;42.624;23.386;2023-05-17T12:41:57;93587.44;;;17.19;91.68
7918;BME280;4004;42.624;23.386;2023-05-17T12:44:24;93593.31;;;17.14;92.67
7918;BME280;4004;42.624;23.386;2023-05-17T12:46:52;93597.22;;;17.13;95.10
7918;BME280;4004;42.624;23.386;2023-05-17T12:49:20;93579.84;;;17.07;93.58
7918;BME280;4004;42.624;23.386;2023-05-17T12:51:47;93593.28;;;17.17;91.27
7918;BME280;4004;42.624;23.386;2023-05-17T12:54:24;93593.75;;;17.12;93.56
7918;BME280;4004;42.624;23.386;2023-05-17T12:56:51;93596.00;;;17.17;93.83
7918;BME280;4004;42.624;23.386;2023-05-17T12:59:19;93594.00;;;17.22;95.75
7918;BME280;4004;42.624;23.386;2023-05-17T13:01:51;93599.81;;;17.20;97.46
7918;BME280;4004;42.624;23.386;2023-05-17T13:04:27;93601.56;;;17.07;95.24
7918;BME280;4004;42.624;23.386;2023-05-17T13:06:57;93605.03;;;17.07;96.09
7918;BME280;4004;42.624;23.386;2023-05-17T13:09:25;93597.69;;;17.08;96.60